Svitzer Stanlow — MLNF7 — position and weather

sailwx.info

Track history (hours):
 
Tides and Currents Weather Stations Pressure Air Temp Water Temp Dewpoint Dewpoint Depression Visibility Wind Speed Wind Dir Waves Ship Positions

Svitzer Stanlow

Last reported at 2016-Jul-26 02:30 UTC. Time now 2016-Jul-26 02:39 UTC.
Position N 53°25' W 003°00'.

Length 39 m.

Type: Tug. MMSI: 235010620.

Date/timePositionNaut miles runAvg speedWind from/ knotsBaromVisibWave heightAir tempDewpointWater temp
2016-Jul-26 02:30N 53°25' W 003°00'0 0.0
2016-Jul-26 01:33N 53°25' W 003°00'0 0.0
2016-Jul-26 00:33N 53°25' W 003°00'0 0.0
2016-Jul-25 23:33N 53°25' W 003°00'0 0.0
2016-Jul-25 22:33N 53°25' W 003°00'0 0.0
2016-Jul-25 21:33N 53°25' W 003°00'0 0.0
2016-Jul-25 20:33N 53°25' W 003°00'0 0.0
2016-Jul-25 19:33N 53°25' W 003°00'0 0.0
2016-Jul-25 18:32N 53°25' W 003°00'0 0.0
2016-Jul-25 17:29N 53°25' W 003°00'0 0.0
2016-Jul-25 16:32N 53°25' W 003°00'0 0.0
2016-Jul-25 15:29N 53°25' W 003°00'0 0.0
2016-Jul-25 14:26N 53°25' W 003°00'0 0.0
2016-Jul-25 13:32N 53°25' W 003°00'0 0.0
2016-Jul-25 12:29N 53°25' W 003°00'0 0.0
2016-Jul-25 11:29N 53°25' W 003°00'0 0.0
2016-Jul-25 10:29N 53°25' W 003°00'0 0.0
2016-Jul-25 09:26N 53°25' W 003°00'0 0.0
2016-Jul-25 08:32N 53°25' W 003°00'0 0.0
2016-Jul-25 07:29N 53°25' W 003°00'0 0.0
2016-Jul-25 06:29N 53°25' W 003°00'0 0.0
2016-Jul-25 05:29N 53°25' W 003°00'0 0.0
2016-Jul-25 04:32N 53°25' W 003°00'0 0.0
2016-Jul-25 03:32N 53°25' W 003°00'0 0.0
2016-Jul-25 02:29N 53°25' W 003°00'0 0.0
2016-Jul-25 01:29N 53°25' W 003°00'0 0.0
2016-Jul-25 00:32N 53°25' W 003°00'0 0.0
2016-Jul-24 23:32N 53°25' W 003°00'0 0.0
2016-Jul-24 22:29N 53°25' W 003°00'0 0.0
2016-Jul-24 21:32N 53°25' W 003°00'0 0.0
2016-Jul-24 20:32N 53°25' W 003°00'0 0.0
2016-Jul-24 19:32N 53°25' W 003°00'0 0.0
2016-Jul-24 18:29N 53°25' W 003°00'0 0.0
2016-Jul-24 17:29N 53°25' W 003°00'0 0.0
2016-Jul-24 16:32N 53°25' W 003°00'0 0.0
2016-Jul-24 15:32N 53°25' W 003°00'0 0.0
2016-Jul-24 14:29N 53°25' W 003°00'0 0.0
2016-Jul-24 13:29N 53°25' W 003°00'0 0.0
2016-Jul-24 12:26N 53°25' W 003°00'2 1.9
2016-Jul-24 11:33N 53°27' W 003°01'2 1.9
2016-Jul-24 10:33N 53°25' W 003°01'3 2.6
2016-Jul-24 09:33N 53°23' W 002°60'0 0.2
2016-Jul-24 08:33N 53°23' W 002°60'0 0.0
2016-Jul-24 07:33N 53°23' W 002°60'0 0.0
2016-Jul-24 06:30N 53°23' W 002°60'0 0.0
2016-Jul-24 05:33N 53°23' W 002°60'0 0.0
2016-Jul-24 04:33N 53°23' W 002°60'0 0.0
2016-Jul-24 03:33N 53°23' W 002°60'0 0.0
2016-Jul-24 02:33N 53°23' W 002°60'0 0.0
2016-Jul-24 01:33N 53°23' W 002°60'0 0.0
2016-Jul-24 00:30N 53°23' W 002°60'0 0.0
2016-Jul-23 23:32N 53°23' W 002°60'0 0.0
2016-Jul-23 22:23N 53°23' W 002°60'0 0.0
2016-Jul-23 21:32N 53°23' W 002°60'0 0.0
2016-Jul-23 20:26N 53°23' W 002°60'0 0.0
2016-Jul-23 19:23N 53°23' W 002°60'0 0.0
2016-Jul-23 18:26N 53°23' W 002°60'0 0.0
2016-Jul-23 17:32N 53°23' W 002°60'0 0.0
2016-Jul-23 16:29N 53°23' W 002°60'0 0.0
2016-Jul-23 15:32N 53°23' W 002°60'0 0.0
2016-Jul-23 14:32N 53°23' W 002°60'0 0.0
2016-Jul-23 13:29N 53°23' W 002°60'0 0.0
2016-Jul-23 12:32N 53°23' W 002°60'0 0.0
2016-Jul-23 11:32N 53°23' W 002°60'0 0.0
2016-Jul-23 10:32N 53°23' W 002°60'0 0.0
2016-Jul-23 09:26N 53°23' W 002°60'0 0.0
2016-Jul-23 08:32N 53°23' W 002°60'0 0.0
2016-Jul-23 07:32N 53°23' W 002°60'0 0.0
2016-Jul-23 06:32N 53°23' W 002°60'0 0.0
2016-Jul-23 04:14N 53°23' W 002°60'0 0.0
2016-Jul-23 03:32N 53°23' W 002°60'0 0.0
2016-Jul-23 02:29N 53°23' W 002°60'0 0.0
2016-Jul-23 01:32N 53°23' W 003°00'2 1.8
2016-Jul-23 00:33N 53°25' W 003°01'9 8.7
2016-Jul-22 23:33N 53°32' W 003°09'1 1.0
2016-Jul-22 22:33N 53°32' W 003°07'7 6.4
2016-Jul-22 21:32N 53°26' W 003°01'1 1.0
2016-Jul-22 20:33N 53°25' W 003°00'0 0.0
2016-Jul-22 19:33N 53°25' W 003°00'0 0.0
2016-Jul-22 18:33N 53°25' W 003°00'0 0.0
2016-Jul-22 17:33N 53°25' W 003°00'0 0.0
2016-Jul-22 16:33N 53°25' W 003°00'0 0.0
2016-Jul-22 15:33N 53°25' W 003°00'0 0.0
2016-Jul-22 14:33N 53°25' W 003°00'0 0.0
2016-Jul-22 13:33N 53°25' W 003°00'2 2.1
2016-Jul-22 12:33N 53°27' W 003°01'0 0.3
2016-Jul-22 11:26N 53°27' W 003°01'1 0.9
2016-Jul-22 10:33N 53°26' W 003°01'1 0.9
2016-Jul-22 09:29N 53°25' W 003°00'0 0.0
2016-Jul-22 08:32N 53°25' W 003°00'0 0.0
2016-Jul-22 07:29N 53°25' W 003°00'0 0.0
2016-Jul-22 04:32N 53°25' W 003°00'0 0.0
2016-Jul-22 03:32N 53°25' W 003°00'0 0.0
2016-Jul-22 02:29N 53°25' W 003°00'0 0.0
2016-Jul-22 01:29N 53°25' W 003°00'0 0.0
2016-Jul-22 00:32N 53°25' W 003°00'0 0.0
2016-Jul-21 23:31N 53°25' W 003°00'0 0.0
2016-Jul-21 22:31N 53°25' W 003°00'0 0.0
2016-Jul-21 21:28N 53°25' W 003°00'0 0.0
2016-Jul-21 20:31N 53°25' W 003°00'0 0.0
2016-Jul-21 19:31N 53°25' W 003°00'0 0.0
2016-Jul-21 18:31N 53°25' W 003°00'0 0.0
2016-Jul-21 17:31N 53°25' W 003°00'0 0.0
2016-Jul-21 16:31N 53°25' W 003°00'0 0.0
2016-Jul-21 15:28N 53°25' W 003°00'0 0.0
2016-Jul-21 14:31N 53°25' W 003°00'0 0.0
2016-Jul-21 13:31N 53°25' W 003°00'0 0.0
2016-Jul-21 12:31N 53°25' W 003°00'0 0.1
2016-Jul-21 11:20N 53°25' W 003°00'0 0.0
2016-Jul-21 10:32N 53°25' W 003°00'0 0.0
2016-Jul-21 09:26N 53°25' W 003°00'0 0.0
2016-Jul-21 08:29N 53°25' W 003°00'0 0.0
2016-Jul-21 07:32N 53°25' W 003°00'0 0.0
2016-Jul-21 06:32N 53°25' W 003°00'0 0.0
2016-Jul-21 05:32N 53°25' W 003°00'0 0.0
2016-Jul-21 04:32N 53°25' W 003°00'0 0.0
2016-Jul-21 03:26N 53°25' W 003°00'0 0.0
2016-Jul-21 02:31N 53°25' W 003°00'0 0.0
2016-Jul-21 01:31N 53°25' W 003°00'0 0.0
2016-Jul-21 00:31N 53°25' W 003°00'0 0.0
2016-Jul-20 23:31N 53°25' W 003°00'0 0.0
2016-Jul-20 22:28N 53°25' W 003°00'0 0.0
2016-Jul-20 21:31N 53°25' W 003°00'0 0.0
2016-Jul-20 20:31N 53°25' W 003°00'0 0.0
2016-Jul-20 19:25N 53°25' W 003°00'0 0.0
2016-Jul-20 18:25N 53°25' W 003°00'0 0.0
2016-Jul-20 17:31N 53°25' W 003°00'0 0.0
2016-Jul-20 16:31N 53°25' W 003°00'0 0.0
2016-Jul-20 15:31N 53°25' W 003°00'0 0.0
2016-Jul-20 14:31N 53°25' W 003°00'0 0.0
2016-Jul-20 13:28N 53°25' W 003°00'0 0.0
2016-Jul-20 12:31N 53°25' W 003°00'0 0.0
2016-Jul-20 11:31N 53°25' W 003°00'0 0.0
2016-Jul-20 10:28N 53°25' W 003°00'0 0.0
2016-Jul-20 09:31N 53°25' W 003°00'0 0.0
2016-Jul-20 08:31N 53°25' W 003°00'0 0.0
2016-Jul-20 07:31N 53°25' W 003°00'0 0.0
2016-Jul-20 06:34N 53°25' W 003°00'0 0.0
2016-Jul-20 05:28N 53°25' W 003°00'0 0.0
2016-Jul-20 04:28N 53°25' W 003°00'0 0.0
2016-Jul-20 03:31N 53°25' W 003°00'0 0.0
2016-Jul-20 02:31N 53°25' W 003°00'0 0.0
2016-Jul-20 01:28N 53°25' W 003°00'0 0.0
2016-Jul-20 00:25N 53°25' W 003°00'0 0.0
2016-Jul-19 23:31N 53°25' W 003°00'0 0.0
2016-Jul-19 22:31N 53°25' W 003°00'0 0.0
2016-Jul-19 21:28N 53°25' W 003°00'0 0.0
2016-Jul-19 20:31N 53°25' W 003°00'0 0.0
2016-Jul-19 19:31N 53°25' W 003°00'0 0.0
2016-Jul-19 18:34N 53°25' W 003°00'0 0.0
2016-Jul-19 17:27N 53°25' W 003°00'0 0.0
2016-Jul-19 16:30N 53°25' W 003°00'0 0.0
2016-Jul-19 15:33N 53°25' W 003°00'0 0.0
2016-Jul-19 14:33N 53°25' W 003°00'0 0.0
2016-Jul-19 13:33N 53°25' W 003°00'0 0.0
2016-Jul-19 12:33N 53°25' W 003°00'0 0.0
2016-Jul-19 11:33N 53°25' W 003°00'0 0.0
2016-Jul-19 10:33N 53°25' W 003°00'0 0.0
2016-Jul-19 09:33N 53°25' W 003°00'0 0.0
2016-Jul-19 08:27N 53°25' W 003°00'0 0.0
2016-Jul-19 07:33N 53°25' W 003°00'0 0.0
2016-Jul-19 04:33N 53°25' W 003°00'0 0.0
2016-Jul-19 03:33N 53°25' W 003°00'0 0.0
2016-Jul-19 02:33N 53°25' W 003°00'0 0.0
2016-Jul-19 01:33N 53°25' W 003°00'0 0.0
2016-Jul-19 00:33N 53°25' W 003°00'0 0.0
2016-Jul-18 23:33N 53°25' W 003°00'0 0.0
2016-Jul-18 22:33N 53°25' W 003°00'0 0.0
2016-Jul-18 21:33N 53°25' W 003°00'0 0.0
2016-Jul-18 20:24N 53°25' W 003°00'0 0.0
2016-Jul-18 19:33N 53°25' W 003°00'0 0.0
2016-Jul-18 18:33N 53°25' W 003°00'0 0.0
2016-Jul-18 17:33N 53°25' W 003°00'0 0.0
2016-Jul-18 16:33N 53°25' W 003°00'0 0.0
2016-Jul-18 15:33N 53°25' W 003°00'0 0.0
2016-Jul-18 14:33N 53°25' W 003°00'0 0.0
2016-Jul-18 13:27N 53°25' W 003°00'0 0.0
2016-Jul-18 12:33N 53°25' W 003°00'0 0.0
2016-Jul-18 11:33N 53°25' W 003°00'0 0.0
2016-Jul-18 10:33N 53°25' W 003°00'0 0.0
2016-Jul-18 09:33N 53°25' W 003°00'0 0.0
2016-Jul-18 08:29N 53°25' W 003°00'0 0.0
2016-Jul-18 07:32N 53°25' W 003°00'1 0.9
2016-Jul-18 06:33N 53°26' W 003°01'4 3.6
2016-Jul-18 05:32N 53°23' W 002°60'0 0.2
2016-Jul-18 04:31N 53°23' W 003°00'0 0.0
2016-Jul-18 03:31N 53°23' W 003°00'0 0.0
2016-Jul-18 02:31N 53°23' W 003°00'0 0.0
2016-Jul-18 01:31N 53°23' W 003°00'0 0.0
2016-Jul-18 00:31N 53°23' W 003°00'0 0.0
2016-Jul-17 23:31N 53°23' W 003°00'0 0.0
2016-Jul-17 22:31N 53°23' W 003°00'0 0.0
2016-Jul-17 21:28N 53°23' W 003°00'0 0.0
2016-Jul-17 20:31N 53°23' W 003°00'0 0.0
2016-Jul-17 19:31N 53°23' W 003°00'0 0.0
2016-Jul-17 18:31N 53°23' W 003°00'0 0.0
2016-Jul-17 17:28N 53°23' W 003°00'0 0.0
2016-Jul-17 16:28N 53°23' W 003°00'0 0.0
2016-Jul-17 15:28N 53°23' W 003°00'0 0.0
2016-Jul-17 14:31N 53°23' W 003°00'0 0.0
2016-Jul-17 13:31N 53°23' W 003°00'0 0.0
2016-Jul-17 12:31N 53°23' W 003°00'0 0.0
2016-Jul-17 11:31N 53°23' W 003°00'0 0.0
2016-Jul-17 10:31N 53°23' W 003°00'0 0.0
2016-Jul-17 09:31N 53°23' W 003°00'4 4.0
2016-Jul-17 08:32N 53°27' W 003°01'1 0.8
2016-Jul-17 07:33N 53°27' W 003°02'5 4.5
2016-Jul-17 06:32N 53°23' W 003°00'0 0.0
2016-Jul-17 04:28N 53°23' W 002°60'0 0.0
2016-Jul-17 03:25N 53°23' W 002°60'0 0.0
2016-Jul-17 02:28N 53°23' W 002°60'0 0.0
2016-Jul-17 01:31N 53°23' W 002°60'0 0.0
2016-Jul-17 00:31N 53°23' W 002°60'0 0.0
2016-Jul-16 23:28N 53°23' W 002°60'0 0.0
2016-Jul-16 22:31N 53°23' W 002°60'0 0.1
2016-Jul-16 21:30N 53°23' W 002°60'2 2.3
2016-Jul-16 20:33N 53°25' W 003°01'8 8.1
2016-Jul-16 19:33N 53°32' W 003°08'5 5.3
2016-Jul-16 18:33N 53°32' W 003°17'9 9.2
2016-Jul-16 17:33N 53°28' W 003°03'6 5.4
2016-Jul-16 16:32N 53°23' W 002°60'0 0.0
2016-Jul-16 15:32N 53°23' W 002°60'0 0.0
2016-Jul-16 14:32N 53°23' W 002°60'0 0.0
2016-Jul-16 13:32N 53°23' W 002°60'0 0.0
2016-Jul-16 12:32N 53°23' W 002°60'0 0.0
2016-Jul-16 11:32N 53°23' W 002°60'0 0.0
2016-Jul-16 10:32N 53°23' W 002°60'0 0.0
2016-Jul-16 09:32N 53°23' W 002°60'0 0.0
2016-Jul-16 08:32N 53°23' W 002°60'0 0.0
2016-Jul-16 07:32N 53°23' W 002°60'0 0.0
2016-Jul-16 06:32N 53°23' W 002°60'0 0.0
2016-Jul-16 04:32N 53°23' W 002°60'0 0.0
2016-Jul-16 03:29N 53°23' W 002°60'0 0.0
2016-Jul-16 02:32N 53°23' W 002°60'  
Track history (hours):
 
Tides and Currents Weather Stations Pressure Air Temp Water Temp Dewpoint Dewpoint Depression Visibility Wind Speed Wind Dir Waves Ship Positions

Svitzer Stanlow

Last reported at 2016-Jul-26 02:30 UTC. Time now 2016-Jul-26 02:39 UTC.
Position N 53°25' W 003°00'.

Length 39 m.

Type: Tug. MMSI: 235010620.

Date/timePositionNaut miles runAvg speedWind from/ knotsBaromVisibWave heightAir tempDewpointWater temp
2016-Jul-26 02:30N 53°25' W 003°00'0 0.0
2016-Jul-26 01:33N 53°25' W 003°00'0 0.0
2016-Jul-26 00:33N 53°25' W 003°00'0 0.0
2016-Jul-25 23:33N 53°25' W 003°00'0 0.0
2016-Jul-25 22:33N 53°25' W 003°00'0 0.0
2016-Jul-25 21:33N 53°25' W 003°00'0 0.0
2016-Jul-25 20:33N 53°25' W 003°00'0 0.0
2016-Jul-25 19:33N 53°25' W 003°00'0 0.0
2016-Jul-25 18:32N 53°25' W 003°00'0 0.0
2016-Jul-25 17:29N 53°25' W 003°00'0 0.0
2016-Jul-25 16:32N 53°25' W 003°00'0 0.0
2016-Jul-25 15:29N 53°25' W 003°00'0 0.0
2016-Jul-25 14:26N 53°25' W 003°00'0 0.0
2016-Jul-25 13:32N 53°25' W 003°00'0 0.0
2016-Jul-25 12:29N 53°25' W 003°00'0 0.0
2016-Jul-25 11:29N 53°25' W 003°00'0 0.0
2016-Jul-25 10:29N 53°25' W 003°00'0 0.0
2016-Jul-25 09:26N 53°25' W 003°00'0 0.0
2016-Jul-25 08:32N 53°25' W 003°00'0 0.0
2016-Jul-25 07:29N 53°25' W 003°00'0 0.0
2016-Jul-25 06:29N 53°25' W 003°00'0 0.0
2016-Jul-25 05:29N 53°25' W 003°00'0 0.0
2016-Jul-25 04:32N 53°25' W 003°00'0 0.0
2016-Jul-25 03:32N 53°25' W 003°00'0 0.0
2016-Jul-25 02:29N 53°25' W 003°00'0 0.0
2016-Jul-25 01:29N 53°25' W 003°00'0 0.0
2016-Jul-25 00:32N 53°25' W 003°00'0 0.0
2016-Jul-24 23:32N 53°25' W 003°00'0 0.0
2016-Jul-24 22:29N 53°25' W 003°00'0 0.0
2016-Jul-24 21:32N 53°25' W 003°00'0 0.0
2016-Jul-24 20:32N 53°25' W 003°00'0 0.0
2016-Jul-24 19:32N 53°25' W 003°00'0 0.0
2016-Jul-24 18:29N 53°25' W 003°00'0 0.0
2016-Jul-24 17:29N 53°25' W 003°00'0 0.0
2016-Jul-24 16:32N 53°25' W 003°00'0 0.0
2016-Jul-24 15:32N 53°25' W 003°00'0 0.0
2016-Jul-24 14:29N 53°25' W 003°00'0 0.0
2016-Jul-24 13:29N 53°25' W 003°00'0 0.0
2016-Jul-24 12:26N 53°25' W 003°00'2 1.9
2016-Jul-24 11:33N 53°27' W 003°01'2 1.9
2016-Jul-24 10:33N 53°25' W 003°01'3 2.6
2016-Jul-24 09:33N 53°23' W 002°60'0 0.2
2016-Jul-24 08:33N 53°23' W 002°60'0 0.0
2016-Jul-24 07:33N 53°23' W 002°60'0 0.0
2016-Jul-24 06:30N 53°23' W 002°60'0 0.0
2016-Jul-24 05:33N 53°23' W 002°60'0 0.0
2016-Jul-24 04:33N 53°23' W 002°60'0 0.0
2016-Jul-24 03:33N 53°23' W 002°60'0 0.0
2016-Jul-24 02:33N 53°23' W 002°60'0 0.0
2016-Jul-24 01:33N 53°23' W 002°60'0 0.0
2016-Jul-24 00:30N 53°23' W 002°60'0 0.0
2016-Jul-23 23:32N 53°23' W 002°60'0 0.0
2016-Jul-23 22:23N 53°23' W 002°60'0 0.0
2016-Jul-23 21:32N 53°23' W 002°60'0 0.0
2016-Jul-23 20:26N 53°23' W 002°60'0 0.0
2016-Jul-23 19:23N 53°23' W 002°60'0 0.0
2016-Jul-23 18:26N 53°23' W 002°60'0 0.0
2016-Jul-23 17:32N 53°23' W 002°60'0 0.0
2016-Jul-23 16:29N 53°23' W 002°60'0 0.0
2016-Jul-23 15:32N 53°23' W 002°60'0 0.0
2016-Jul-23 14:32N 53°23' W 002°60'0 0.0
2016-Jul-23 13:29N 53°23' W 002°60'0 0.0
2016-Jul-23 12:32N 53°23' W 002°60'0 0.0
2016-Jul-23 11:32N 53°23' W 002°60'0 0.0
2016-Jul-23 10:32N 53°23' W 002°60'0 0.0
2016-Jul-23 09:26N 53°23' W 002°60'0 0.0
2016-Jul-23 08:32N 53°23' W 002°60'0 0.0
2016-Jul-23 07:32N 53°23' W 002°60'0 0.0
2016-Jul-23 06:32N 53°23' W 002°60'0 0.0
2016-Jul-23 04:14N 53°23' W 002°60'0 0.0
2016-Jul-23 03:32N 53°23' W 002°60'0 0.0
2016-Jul-23 02:29N 53°23' W 002°60'0 0.0
2016-Jul-23 01:32N 53°23' W 003°00'2 1.8
2016-Jul-23 00:33N 53°25' W 003°01'9 8.7
2016-Jul-22 23:33N 53°32' W 003°09'1 1.0
2016-Jul-22 22:33N 53°32' W 003°07'7 6.4
2016-Jul-22 21:32N 53°26' W 003°01'1 1.0
2016-Jul-22 20:33N 53°25' W 003°00'0 0.0
2016-Jul-22 19:33N 53°25' W 003°00'0 0.0
2016-Jul-22 18:33N 53°25' W 003°00'0 0.0
2016-Jul-22 17:33N 53°25' W 003°00'0 0.0
2016-Jul-22 16:33N 53°25' W 003°00'0 0.0
2016-Jul-22 15:33N 53°25' W 003°00'0 0.0
2016-Jul-22 14:33N 53°25' W 003°00'0 0.0
2016-Jul-22 13:33N 53°25' W 003°00'2 2.1
2016-Jul-22 12:33N 53°27' W 003°01'0 0.3
2016-Jul-22 11:26N 53°27' W 003°01'1 0.9
2016-Jul-22 10:33N 53°26' W 003°01'1 0.9
2016-Jul-22 09:29N 53°25' W 003°00'0 0.0
2016-Jul-22 08:32N 53°25' W 003°00'0 0.0
2016-Jul-22 07:29N 53°25' W 003°00'0 0.0
2016-Jul-22 04:32N 53°25' W 003°00'0 0.0
2016-Jul-22 03:32N 53°25' W 003°00'0 0.0
2016-Jul-22 02:29N 53°25' W 003°00'0 0.0
2016-Jul-22 01:29N 53°25' W 003°00'0 0.0
2016-Jul-22 00:32N 53°25' W 003°00'0 0.0
2016-Jul-21 23:31N 53°25' W 003°00'0 0.0
2016-Jul-21 22:31N 53°25' W 003°00'0 0.0
2016-Jul-21 21:28N 53°25' W 003°00'0 0.0
2016-Jul-21 20:31N 53°25' W 003°00'0 0.0
2016-Jul-21 19:31N 53°25' W 003°00'0 0.0
2016-Jul-21 18:31N 53°25' W 003°00'0 0.0
2016-Jul-21 17:31N 53°25' W 003°00'0 0.0
2016-Jul-21 16:31N 53°25' W 003°00'0 0.0
2016-Jul-21 15:28N 53°25' W 003°00'0 0.0
2016-Jul-21 14:31N 53°25' W 003°00'0 0.0
2016-Jul-21 13:31N 53°25' W 003°00'0 0.0
2016-Jul-21 12:31N 53°25' W 003°00'0 0.1
2016-Jul-21 11:20N 53°25' W 003°00'0 0.0
2016-Jul-21 10:32N 53°25' W 003°00'0 0.0
2016-Jul-21 09:26N 53°25' W 003°00'0 0.0
2016-Jul-21 08:29N 53°25' W 003°00'0 0.0
2016-Jul-21 07:32N 53°25' W 003°00'0 0.0
2016-Jul-21 06:32N 53°25' W 003°00'0 0.0
2016-Jul-21 05:32N 53°25' W 003°00'0 0.0
2016-Jul-21 04:32N 53°25' W 003°00'0 0.0
2016-Jul-21 03:26N 53°25' W 003°00'0 0.0
2016-Jul-21 02:31N 53°25' W 003°00'0 0.0
2016-Jul-21 01:31N 53°25' W 003°00'0 0.0
2016-Jul-21 00:31N 53°25' W 003°00'0 0.0
2016-Jul-20 23:31N 53°25' W 003°00'0 0.0
2016-Jul-20 22:28N 53°25' W 003°00'0 0.0
2016-Jul-20 21:31N 53°25' W 003°00'0 0.0
2016-Jul-20 20:31N 53°25' W 003°00'0 0.0
2016-Jul-20 19:25N 53°25' W 003°00'0 0.0
2016-Jul-20 18:25N 53°25' W 003°00'0 0.0
2016-Jul-20 17:31N 53°25' W 003°00'0 0.0
2016-Jul-20 16:31N 53°25' W 003°00'0 0.0
2016-Jul-20 15:31N 53°25' W 003°00'0 0.0
2016-Jul-20 14:31N 53°25' W 003°00'0 0.0
2016-Jul-20 13:28N 53°25' W 003°00'0 0.0
2016-Jul-20 12:31N 53°25' W 003°00'0 0.0
2016-Jul-20 11:31N 53°25' W 003°00'0 0.0
2016-Jul-20 10:28N 53°25' W 003°00'0 0.0
2016-Jul-20 09:31N 53°25' W 003°00'0 0.0
2016-Jul-20 08:31N 53°25' W 003°00'0 0.0
2016-Jul-20 07:31N 53°25' W 003°00'0 0.0
2016-Jul-20 06:34N 53°25' W 003°00'0 0.0
2016-Jul-20 05:28N 53°25' W 003°00'0 0.0
2016-Jul-20 04:28N 53°25' W 003°00'0 0.0
2016-Jul-20 03:31N 53°25' W 003°00'0 0.0
2016-Jul-20 02:31N 53°25' W 003°00'0 0.0
2016-Jul-20 01:28N 53°25' W 003°00'0 0.0
2016-Jul-20 00:25N 53°25' W 003°00'0 0.0
2016-Jul-19 23:31N 53°25' W 003°00'0 0.0
2016-Jul-19 22:31N 53°25' W 003°00'0 0.0
2016-Jul-19 21:28N 53°25' W 003°00'0 0.0
2016-Jul-19 20:31N 53°25' W 003°00'0 0.0
2016-Jul-19 19:31N 53°25' W 003°00'0 0.0
2016-Jul-19 18:34N 53°25' W 003°00'0 0.0
2016-Jul-19 17:27N 53°25' W 003°00'0 0.0
2016-Jul-19 16:30N 53°25' W 003°00'0 0.0
2016-Jul-19 15:33N 53°25' W 003°00'0 0.0
2016-Jul-19 14:33N 53°25' W 003°00'0 0.0
2016-Jul-19 13:33N 53°25' W 003°00'0 0.0
2016-Jul-19 12:33N 53°25' W 003°00'0 0.0
2016-Jul-19 11:33N 53°25' W 003°00'0 0.0
2016-Jul-19 10:33N 53°25' W 003°00'0 0.0
2016-Jul-19 09:33N 53°25' W 003°00'0 0.0
2016-Jul-19 08:27N 53°25' W 003°00'0 0.0
2016-Jul-19 07:33N 53°25' W 003°00'0 0.0
2016-Jul-19 04:33N 53°25' W 003°00'0 0.0
2016-Jul-19 03:33N 53°25' W 003°00'0 0.0
2016-Jul-19 02:33N 53°25' W 003°00'0 0.0
2016-Jul-19 01:33N 53°25' W 003°00'0 0.0
2016-Jul-19 00:33N 53°25' W 003°00'0 0.0
2016-Jul-18 23:33N 53°25' W 003°00'0 0.0
2016-Jul-18 22:33N 53°25' W 003°00'0 0.0
2016-Jul-18 21:33N 53°25' W 003°00'0 0.0
2016-Jul-18 20:24N 53°25' W 003°00'0 0.0
2016-Jul-18 19:33N 53°25' W 003°00'0 0.0
2016-Jul-18 18:33N 53°25' W 003°00'0 0.0
2016-Jul-18 17:33N 53°25' W 003°00'0 0.0
2016-Jul-18 16:33N 53°25' W 003°00'0 0.0
2016-Jul-18 15:33N 53°25' W 003°00'0 0.0
2016-Jul-18 14:33N 53°25' W 003°00'0 0.0
2016-Jul-18 13:27N 53°25' W 003°00'0 0.0
2016-Jul-18 12:33N 53°25' W 003°00'0 0.0
2016-Jul-18 11:33N 53°25' W 003°00'0 0.0
2016-Jul-18 10:33N 53°25' W 003°00'0 0.0
2016-Jul-18 09:33N 53°25' W 003°00'0 0.0
2016-Jul-18 08:29N 53°25' W 003°00'0 0.0
2016-Jul-18 07:32N 53°25' W 003°00'1 0.9
2016-Jul-18 06:33N 53°26' W 003°01'4 3.6
2016-Jul-18 05:32N 53°23' W 002°60'0 0.2
2016-Jul-18 04:31N 53°23' W 003°00'0 0.0
2016-Jul-18 03:31N 53°23' W 003°00'0 0.0
2016-Jul-18 02:31N 53°23' W 003°00'0 0.0
2016-Jul-18 01:31N 53°23' W 003°00'0 0.0
2016-Jul-18 00:31N 53°23' W 003°00'0 0.0
2016-Jul-17 23:31N 53°23' W 003°00'0 0.0
2016-Jul-17 22:31N 53°23' W 003°00'0 0.0
2016-Jul-17 21:28N 53°23' W 003°00'0 0.0
2016-Jul-17 20:31N 53°23' W 003°00'0 0.0
2016-Jul-17 19:31N 53°23' W 003°00'0 0.0
2016-Jul-17 18:31N 53°23' W 003°00'0 0.0
2016-Jul-17 17:28N 53°23' W 003°00'0 0.0
2016-Jul-17 16:28N 53°23' W 003°00'0 0.0
2016-Jul-17 15:28N 53°23' W 003°00'0 0.0
2016-Jul-17 14:31N 53°23' W 003°00'0 0.0
2016-Jul-17 13:31N 53°23' W 003°00'0 0.0
2016-Jul-17 12:31N 53°23' W 003°00'0 0.0
2016-Jul-17 11:31N 53°23' W 003°00'0 0.0
2016-Jul-17 10:31N 53°23' W 003°00'0 0.0
2016-Jul-17 09:31N 53°23' W 003°00'4 4.0
2016-Jul-17 08:32N 53°27' W 003°01'1 0.8
2016-Jul-17 07:33N 53°27' W 003°02'5 4.5
2016-Jul-17 06:32N 53°23' W 003°00'0 0.0
2016-Jul-17 04:28N 53°23' W 002°60'0 0.0
2016-Jul-17 03:25N 53°23' W 002°60'0 0.0
2016-Jul-17 02:28N 53°23' W 002°60'0 0.0
2016-Jul-17 01:31N 53°23' W 002°60'0 0.0
2016-Jul-17 00:31N 53°23' W 002°60'0 0.0
2016-Jul-16 23:28N 53°23' W 002°60'0 0.0
2016-Jul-16 22:31N 53°23' W 002°60'0 0.1
2016-Jul-16 21:30N 53°23' W 002°60'2 2.3
2016-Jul-16 20:33N 53°25' W 003°01'8 8.1
2016-Jul-16 19:33N 53°32' W 003°08'5 5.3
2016-Jul-16 18:33N 53°32' W 003°17'9 9.2
2016-Jul-16 17:33N 53°28' W 003°03'6 5.4
2016-Jul-16 16:32N 53°23' W 002°60'0 0.0
2016-Jul-16 15:32N 53°23' W 002°60'0 0.0
2016-Jul-16 14:32N 53°23' W 002°60'0 0.0
2016-Jul-16 13:32N 53°23' W 002°60'0 0.0
2016-Jul-16 12:32N 53°23' W 002°60'0 0.0
2016-Jul-16 11:32N 53°23' W 002°60'0 0.0
2016-Jul-16 10:32N 53°23' W 002°60'0 0.0
2016-Jul-16 09:32N 53°23' W 002°60'0 0.0
2016-Jul-16 08:32N 53°23' W 002°60'0 0.0
2016-Jul-16 07:32N 53°23' W 002°60'0 0.0
2016-Jul-16 06:32N 53°23' W 002°60'0 0.0
2016-Jul-16 04:32N 53°23' W 002°60'0 0.0
2016-Jul-16 03:29N 53°23' W 002°60'0 0.0
2016-Jul-16 02:32N 53°23' W 002°60'  

Dump ship's entire track history